createdAt,value
2023-10-23T00:00:14.622Z,5.05
2023-10-23T00:03:22.927Z,2.80
2023-10-23T00:05:56.416Z,3.72
2023-10-23T00:08:28.844Z,3.88
2023-10-23T00:11:01.459Z,2.00
2023-10-23T00:13:36.151Z,3.60
2023-10-23T00:16:12.553Z,3.08
2023-10-23T00:18:45.711Z,1.92
2023-10-23T00:21:20.581Z,6.35
2023-10-23T00:23:52.934Z,2.50
2023-10-23T00:26:26.314Z,3.15
2023-10-23T00:28:58.715Z,9.70
2023-10-23T00:31:35.297Z,3.35
2023-10-23T00:34:07.661Z,4.22
2023-10-23T00:36:40.859Z,2.47
2023-10-23T00:39:12.783Z,2.60
2023-10-23T00:41:46.030Z,2.70
2023-10-23T00:44:20.694Z,2.78
2023-10-23T00:47:01.158Z,3.50
2023-10-23T00:50:10.536Z,2.97
2023-10-23T00:52:49.350Z,7.43
2023-10-23T00:55:25.910Z,3.20
2023-10-23T00:58:16.288Z,2.88
2023-10-23T01:00:52.466Z,3.38
2023-10-23T01:03:33.377Z,3.58
2023-10-23T01:06:14.880Z,3.45
2023-10-23T01:08:50.500Z,4.22
2023-10-23T01:11:22.870Z,4.90
2023-10-23T01:13:55.156Z,5.32
2023-10-23T01:16:28.168Z,3.72
2023-10-23T01:19:03.474Z,3.47
2023-10-23T01:21:35.544Z,3.50
2023-10-23T01:24:12.210Z,3.47
2023-10-23T01:26:52.614Z,3.30
2023-10-23T01:29:24.750Z,4.00
2023-10-23T01:31:56.933Z,4.90
2023-10-23T01:34:29.244Z,4.50
2023-10-23T01:37:01.827Z,5.00
2023-10-23T01:39:34.153Z,5.03
2023-10-23T01:42:09.852Z,4.65
2023-10-23T01:44:42.537Z,4.20
2023-10-23T01:47:16.085Z,6.05
2023-10-23T01:49:49.262Z,4.70
2023-10-23T01:52:21.884Z,4.43
2023-10-23T01:54:55.537Z,3.90
2023-10-23T01:57:31.436Z,4.22
2023-10-23T02:00:07.400Z,4.07
2023-10-23T02:02:39.667Z,4.28
2023-10-23T02:05:12.901Z,6.45
2023-10-23T02:07:44.762Z,4.30
2023-10-23T02:10:17.044Z,5.68
2023-10-23T02:12:52.881Z,4.10
2023-10-23T02:15:25.245Z,5.30
2023-10-23T02:17:57.543Z,5.95
2023-10-23T02:20:30.914Z,4.50
2023-10-23T02:23:03.368Z,4.03
2023-10-23T02:25:35.763Z,4.05
2023-10-23T02:28:10.506Z,4.63
2023-10-23T02:30:43.423Z,4.28
2023-10-23T02:33:15.786Z,4.63
2023-10-23T02:35:48.319Z,4.30
2023-10-23T02:38:20.661Z,4.28
2023-10-23T02:40:56.168Z,4.45
2023-10-23T02:43:31.527Z,5.03
2023-10-23T02:46:06.119Z,3.78
2023-10-23T02:48:38.462Z,4.00
2023-10-23T02:51:11.011Z,3.90
2023-10-23T02:53:43.336Z,4.38
2023-10-23T02:56:16.950Z,3.90
2023-10-23T02:58:52.217Z,3.63
2023-10-23T03:01:26.932Z,4.40
2023-10-23T03:03:59.494Z,4.25
2023-10-23T03:06:32.361Z,4.13
2023-10-23T03:09:06.810Z,4.10
2023-10-23T03:11:40.947Z,3.70
2023-10-23T03:14:15.885Z,3.90
2023-10-23T03:16:48.815Z,5.40
2023-10-23T03:19:23.992Z,4.40
2023-10-23T03:21:57.924Z,4.03
2023-10-23T03:24:30.109Z,4.07
2023-10-23T03:27:02.282Z,4.55
2023-10-23T03:29:37.008Z,4.80
2023-10-23T03:32:10.668Z,5.05
2023-10-23T03:34:42.567Z,4.57
2023-10-23T03:37:16.343Z,4.72
2023-10-23T03:39:48.790Z,4.70
2023-10-23T03:42:22.242Z,4.60
2023-10-23T03:45:04.005Z,5.05
2023-10-23T03:47:41.732Z,4.45
2023-10-23T03:50:14.289Z,4.75
2023-10-23T03:52:46.598Z,4.32
2023-10-23T03:55:20.681Z,5.55
2023-10-23T03:57:54.051Z,5.18
2023-10-23T04:00:29.064Z,4.70
2023-10-23T04:03:01.561Z,5.10
2023-10-23T04:05:35.516Z,5.63
2023-10-23T04:08:08.116Z,5.45
2023-10-23T04:10:40.119Z,5.18
2023-10-23T04:13:12.296Z,5.70
2023-10-23T04:15:56.894Z,5.78
2023-10-23T04:18:29.223Z,5.47
2023-10-23T04:21:08.846Z,5.60
2023-10-23T04:23:42.655Z,6.07
2023-10-23T04:26:15.246Z,6.07
2023-10-23T04:28:47.671Z,5.22
2023-10-23T04:31:22.380Z,6.13
2023-10-23T04:33:54.739Z,5.78
2023-10-23T04:36:31.107Z,6.10
2023-10-23T04:39:04.173Z,5.88
2023-10-23T04:41:37.480Z,5.85
2023-10-23T04:44:14.323Z,6.35
2023-10-23T04:46:56.063Z,6.45
2023-10-23T04:49:28.557Z,6.40
2023-10-23T04:52:04.347Z,5.75
2023-10-23T04:54:41.492Z,6.32
2023-10-23T04:57:18.057Z,6.70
2023-10-23T04:59:50.359Z,7.25
2023-10-23T05:02:25.418Z,7.18
2023-10-23T05:04:57.684Z,6.68
2023-10-23T05:07:33.160Z,6.63
2023-10-23T05:10:07.113Z,6.90
2023-10-23T05:12:40.428Z,6.60
2023-10-23T05:15:26.379Z,6.50
2023-10-23T05:18:03.531Z,6.80
2023-10-23T05:20:45.146Z,6.72
2023-10-23T05:23:26.747Z,7.47
2023-10-23T05:26:03.082Z,7.20
2023-10-23T05:28:38.447Z,6.68
2023-10-23T05:31:12.327Z,7.97
2023-10-23T05:33:53.472Z,8.00
2023-10-23T05:36:27.885Z,7.80
2023-10-23T05:39:08.714Z,6.50
2023-10-23T05:41:41.712Z,6.93
2023-10-23T05:44:13.999Z,8.07
2023-10-23T05:46:47.399Z,8.35
2023-10-23T05:49:21.912Z,8.55
2023-10-23T05:51:54.074Z,7.50
2023-10-23T05:54:32.338Z,8.10
2023-10-23T05:57:05.232Z,8.43
2023-10-23T05:59:41.360Z,8.20
2023-10-23T06:02:15.676Z,8.00
2023-10-23T06:04:51.787Z,9.18
2023-10-23T06:07:23.951Z,9.75
2023-10-23T06:09:58.010Z,9.45
2023-10-23T06:12:33.107Z,10.00
2023-10-23T06:15:06.326Z,10.30
2023-10-23T06:17:46.057Z,10.65
2023-10-23T06:20:20.735Z,10.27
2023-10-23T06:23:10.294Z,11.50
2023-10-23T06:25:42.425Z,10.68
2023-10-23T06:28:14.682Z,10.32
2023-10-23T06:30:48.826Z,10.23
2023-10-23T06:33:22.326Z,11.10
2023-10-23T06:36:05.138Z,11.45
2023-10-23T06:38:37.976Z,11.95
2023-10-23T06:41:10.753Z,11.18
2023-10-23T06:43:43.249Z,11.68
2023-10-23T06:46:15.577Z,12.00
2023-10-23T06:48:48.748Z,12.75
2023-10-23T06:51:23.345Z,12.75
2023-10-23T06:53:56.146Z,12.18
2023-10-23T06:56:35.120Z,12.48
2023-10-23T06:59:07.451Z,11.77
2023-10-23T07:01:46.201Z,12.15
2023-10-23T07:04:25.569Z,12.90
2023-10-23T07:07:10.907Z,12.05
2023-10-23T07:09:54.900Z,11.68
2023-10-23T07:12:26.932Z,12.90
2023-10-23T07:15:00.190Z,12.95
2023-10-23T07:17:33.588Z,11.25
2023-10-23T07:20:08.602Z,11.00
2023-10-23T07:22:43.163Z,11.25
2023-10-23T07:25:21.005Z,11.00
2023-10-23T07:28:02.690Z,10.38
2023-10-23T07:30:34.918Z,10.25
2023-10-23T07:33:07.238Z,10.02
2023-10-23T07:35:52.632Z,9.63
2023-10-23T07:38:29.299Z,9.95
2023-10-23T07:41:02.622Z,9.43
2023-10-23T07:43:50.857Z,9.60
2023-10-23T07:47:09.867Z,9.48
2023-10-23T07:49:56.493Z,9.63
2023-10-23T07:52:42.015Z,9.05
2023-10-23T07:55:17.554Z,9.35
2023-10-23T07:57:55.493Z,9.70
2023-10-23T08:00:30.335Z,9.20
2023-10-23T08:03:07.323Z,9.10
2023-10-23T08:06:00.881Z,9.02
2023-10-23T08:08:45.806Z,9.68
2023-10-23T08:11:22.767Z,9.55
2023-10-23T08:13:55.764Z,8.40
2023-10-23T08:16:41.134Z,10.45
2023-10-23T08:19:14.540Z,9.35
2023-10-23T08:21:58.861Z,8.10
2023-10-23T08:24:50.080Z,8.52
2023-10-23T08:27:39.801Z,10.25
2023-10-23T08:30:17.204Z,9.75
2023-10-23T08:32:53.215Z,8.80
2023-10-23T08:35:33.887Z,8.68
2023-10-23T08:38:09.326Z,8.52
2023-10-23T08:40:47.323Z,8.52
2023-10-23T08:43:23.841Z,8.65
2023-10-23T08:45:58.745Z,8.07
2023-10-23T08:48:33.642Z,8.43
2023-10-23T08:51:08.661Z,7.40
2023-10-23T08:57:18.644Z,8.13
2023-10-23T08:59:58.963Z,8.23
2023-10-23T09:02:52.060Z,8.10
2023-10-23T09:05:45.841Z,8.15
2023-10-23T09:08:29.047Z,8.25
2023-10-23T09:11:06.323Z,7.80
2023-10-23T09:13:40.325Z,8.00
2023-10-23T09:16:18.178Z,8.57
2023-10-23T09:19:07.308Z,7.57
2023-10-23T09:21:39.567Z,7.68
2023-10-23T09:24:15.493Z,9.15
2023-10-23T09:26:54.162Z,7.95
2023-10-23T09:29:27.765Z,7.53
2023-10-23T09:32:04.883Z,8.10
2023-10-23T09:34:38.244Z,7.97
2023-10-23T09:37:11.269Z,7.90
2023-10-23T09:39:49.403Z,9.23
2023-10-23T09:42:42.243Z,8.05
2023-10-23T09:45:17.962Z,8.07
2023-10-23T09:48:02.780Z,7.93
2023-10-23T09:51:07.404Z,8.02
2023-10-23T09:54:32.085Z,8.70
2023-10-23T09:57:35.804Z,8.80
2023-10-23T10:00:20.963Z,9.02
2023-10-23T10:03:21.539Z,9.38
2023-10-23T10:07:00.850Z,7.32
2023-10-23T10:10:03.229Z,6.60
2023-10-23T10:13:15.092Z,6.53
2023-10-23T10:16:09.939Z,8.32
2023-10-23T10:20:37.967Z,7.20
2023-10-23T10:23:14.612Z,7.30
2023-10-23T10:27:02.242Z,13.90
2023-10-23T10:29:46.524Z,6.50
2023-10-23T10:32:31.239Z,7.32
2023-10-23T10:35:45.158Z,6.63
2023-10-23T10:38:36.647Z,8.23
2023-10-23T10:41:40.802Z,6.30
2023-10-23T10:44:24.446Z,5.70
2023-10-23T10:47:03.263Z,5.28
2023-10-23T10:49:36.171Z,6.60
2023-10-23T10:52:59.169Z,6.30
2023-10-23T10:56:27.689Z,5.40
2023-10-23T10:59:46.217Z,6.10
2023-10-23T11:02:36.609Z,5.40
2023-10-23T11:05:40.257Z,5.65
2023-10-23T11:08:35.731Z,5.88
2023-10-23T11:11:14.690Z,5.53
2023-10-23T11:13:48.448Z,5.35
2023-10-23T11:16:31.820Z,5.88
2023-10-23T11:19:09.810Z,5.85
2023-10-23T11:22:12.479Z,6.03
2023-10-23T11:24:47.992Z,8.95
2023-10-23T11:27:25.207Z,6.28
2023-10-23T11:30:05.252Z,5.68
2023-10-23T11:32:38.749Z,7.05
2023-10-23T11:35:13.061Z,6.82
2023-10-23T11:37:49.489Z,5.78
2023-10-23T11:40:28.417Z,6.63
2023-10-23T11:43:17.507Z,6.60
2023-10-23T11:45:57.516Z,6.57
2023-10-23T11:48:41.008Z,6.10
2023-10-23T11:51:45.844Z,6.25
2023-10-23T11:54:36.411Z,6.03
2023-10-23T11:57:11.052Z,6.40
2023-10-23T11:59:54.749Z,6.78
2023-10-23T12:02:30.726Z,6.97
2023-10-23T12:05:08.824Z,6.65
2023-10-23T12:07:47.057Z,7.05
2023-10-23T12:10:43.069Z,6.70
2023-10-23T12:13:15.705Z,6.88
2023-10-23T12:15:58.432Z,6.45
2023-10-23T12:18:31.687Z,7.00
2023-10-23T12:21:06.690Z,7.20
2023-10-23T12:23:40.573Z,6.88
2023-10-23T12:26:13.528Z,6.80
2023-10-23T12:28:46.689Z,6.43
2023-10-23T12:32:01.588Z,6.43
2023-10-23T12:34:46.414Z,6.00
2023-10-23T12:37:43.449Z,5.72
2023-10-23T12:40:50.543Z,6.43
2023-10-23T12:43:34.092Z,6.60
2023-10-23T12:46:22.040Z,6.20
2023-10-23T12:49:50.372Z,6.63
2023-10-23T12:52:40.717Z,6.35
2023-10-23T12:55:23.041Z,5.72
2023-10-23T12:58:09.125Z,5.95
2023-10-23T13:01:03.923Z,4.65
2023-10-23T13:03:48.321Z,5.13
2023-10-23T13:06:46.139Z,5.05
2023-10-23T13:09:20.781Z,4.88
2023-10-23T13:12:41.213Z,4.20
2023-10-23T13:15:22.302Z,4.78
2023-10-23T13:17:57.797Z,4.60
2023-10-23T13:21:27.307Z,4.30
2023-10-23T13:23:25.060Z,4.03
2023-10-23T13:26:10.123Z,4.28
2023-10-23T13:28:49.435Z,4.50
2023-10-23T13:31:23.608Z,4.63
2023-10-23T13:33:56.680Z,4.40
2023-10-23T13:36:28.768Z,4.30
2023-10-23T13:39:07.674Z,4.32
2023-10-23T13:41:39.894Z,4.63
2023-10-23T13:44:12.659Z,4.95
2023-10-23T13:46:45.406Z,4.45
2023-10-23T13:49:39.643Z,4.43
2023-10-23T13:52:27.533Z,3.75
2023-10-23T13:55:17.071Z,4.53
2023-10-23T13:57:49.656Z,4.50
2023-10-23T14:00:23.550Z,6.18
2023-10-23T14:03:05.784Z,4.05
2023-10-23T14:05:52.649Z,5.25
2023-10-23T14:08:31.976Z,4.13
2023-10-23T14:11:59.525Z,4.40
2023-10-23T14:14:25.052Z,4.25
2023-10-23T14:16:58.507Z,4.43
2023-10-23T14:19:45.546Z,4.70
2023-10-23T14:22:32.688Z,4.10
2023-10-23T14:25:11.381Z,4.07
2023-10-23T14:27:46.936Z,5.50
2023-10-23T14:30:21.820Z,4.28
2023-10-23T14:32:55.651Z,4.18
2023-10-23T14:35:48.056Z,5.20
2023-10-23T14:38:25.115Z,4.72
2023-10-23T14:41:21.905Z,4.63
2023-10-23T14:43:57.335Z,4.90
2023-10-23T14:46:29.931Z,4.90
2023-10-23T14:49:04.828Z,5.20
2023-10-23T14:51:43.443Z,5.80
2023-10-23T14:54:22.529Z,5.25
2023-10-23T14:57:04.401Z,5.68
2023-10-23T22:07:51.809Z,12.13
2023-10-23T22:10:29.021Z,11.93
2023-10-23T22:13:02.834Z,11.93
2023-10-23T22:15:36.126Z,11.90
2023-10-23T22:18:10.763Z,13.18
2023-10-23T22:20:43.667Z,12.13
2023-10-23T22:23:19.732Z,12.50
2023-10-23T22:25:57.052Z,12.48
2023-10-23T22:28:32.145Z,12.15
2023-10-23T22:31:06.321Z,12.13
2023-10-23T22:33:40.138Z,13.98
2023-10-23T22:36:13.751Z,13.48
2023-10-23T22:38:50.260Z,12.20
2023-10-23T22:41:24.040Z,12.02
2023-10-23T22:43:56.297Z,14.20
2023-10-23T22:46:29.188Z,12.52
2023-10-23T22:49:01.683Z,13.13
2023-10-23T22:51:36.979Z,12.13
2023-10-23T22:54:13.035Z,11.85
2023-10-23T22:56:46.557Z,11.20
2023-10-23T22:59:19.578Z,11.40
2023-10-23T23:01:53.082Z,11.70
2023-10-23T23:04:26.807Z,11.65
2023-10-23T23:07:04.441Z,10.85
2023-10-23T23:09:41.932Z,11.00
2023-10-23T23:12:16.541Z,10.80
2023-10-23T23:14:51.521Z,11.93
2023-10-23T23:20:29.549Z,11.00
2023-10-23T23:23:04.096Z,11.30
2023-10-23T23:25:39.419Z,11.40
2023-10-23T23:28:12.622Z,12.30
2023-10-23T23:30:46.006Z,11.73
2023-10-23T23:33:19.457Z,13.02
2023-10-23T23:35:54.501Z,10.52
2023-10-23T23:38:27.974Z,10.98
2023-10-23T23:41:02.553Z,11.70
2023-10-23T23:43:37.074Z,11.27
2023-10-23T23:46:09.597Z,10.95
2023-10-23T23:48:41.808Z,11.20
2023-10-23T23:51:15.868Z,12.45
2023-10-23T23:53:48.246Z,11.77
2023-10-23T23:56:22.746Z,10.70
2023-10-23T23:58:54.823Z,10.60
